Avilla, MO

6:17 AM CST on January 25, 2015 (GMT -0600)
Monett | Change Station
CLOSE
Current Station
Airport
Location: Monett,
Elevation: 1316 ft
Nearby Weather Stations

Elev 1316 ft 36.91 °N, 94.01 °W | Updated 22 minutes ago

Overcast
Overcast
45 °F
Feels Like 38 °F
N
14
Wind Variable Wind from WNW
Gusts 20 mph

Today
High -- | Low -- °F
--% Chance of Precip.
Yesterday
High -- | Low -- °F
Precip. -- in
7:24 AM 5:33 PM
Waxing Crescent, 31% visible
Pressure 29.70 in
Visibility 10.0 miles
Clouds Scattered Clouds 4800 ft
Overcast 5000 ft
Windchill 38 °F
Dew Point 36 °F
Humidity 71%
Rainfall 0.00 in
Snow Depth Not available.
UV 0 out of 12
Pollen 1.30 out of 12
Air Quality Not available.
Flu Activity Not available.
METAR KHFJ 251155Z AUTO 29012G17KT 10SM SCT048 OVC050 07/02 A2970 RMK AO2

More Conditions Fewer Conditions

Pressure 29.70 in
Visibility 10.0 miles
Clouds Scattered Clouds 4800 ft
Overcast 5000 ft
Windchill 38 °F
Dew Point 36 °F
Humidity 71%
Rainfall 0.00 in
Snow Depth Not available.
UV 0 out of 12
Pollen 1.30 out of 12
Air Quality Not available.
Flu Activity Not available.
METAR KHFJ 251155Z AUTO 29012G17KT 10SM SCT048 OVC050 07/02 A2970 RMK AO2

More Conditions Fewer Conditions

10-Day Weather Forecast

Almanac

Astronomy

Jan. 25, 2015 Rise Set
Actual Time
Civil Twilight
Nautical Twilight
Astronomical Twilight
Moon
Length of Visible Light
Length of Day
Tomorrow will be .
, % of the Moon is Illuminated

Today's Extremes

State Highs State Lows

Community

WunderPhotos

Upload Photos

1,789,873 photos uploaded!

WunderBlogs® & News

Nearby

Air Quality

  Air Quality AQ Index Pollutant
Not available.

Snow Depth

Station Depth Elevation

Earthquake Activity

City Distance Mag. Time & Date
Minimum magnitude displayed is 2.5.

Coastal Water Temperatures

Place Temperature

Nearby Weather Stations